PWSweather.com
Personal Weather Stations
Station Observations
LAKENACI1
Oak Shores Lake Nacimiento, Bradley, CA 93426

Oak Shores Lake NacimientoBradley, CA 93426

Lat: 35.749704, Lon: -120.988075

Elevation: 811

Station Type: Rain wise MK-III

https://www.rainwise.net/weather/JMConstructionOS

Latest ConditionsUpdated 11:04:00 PM PDT Wednesday, Oct 17, 2018
Currently Today's Max Today's Min Today's Average
Temperature 50.0°F10.0°C 84.7°F29.3°C 36.3°F2.4°C 58.1°F14.5°C
Dew Point 34.0°F1.1°C 40.4°F4.7°C 28.3°F-2.1°C 32.8°F0.4°C
Winds Calm Calm 3.7 mph -6.0 kmh - - 0.6 mph 1.0 kmh
Wind Gusts -- 6.7 mph10.8 kmh - -
Humidity 54% 74% 16% 44%
Pressure 29.22 in989.5 mb 29.26 in990.9 mb 29.14 in986.8 mb -
Hour Temp Dew Point Humidity Winds Wind Gusts Pressure Precip Precip Rate Daily Precip Total
11:04 PM 50.0°F10.0°C 34.0°F1.1°C 54% Calm Calm -- 29.22 in989.5 mb 0.00 in0.0 mm 0.00 in0.0 mm 0.00 in0.0 mm
10:59 PM 50.2°F10.1°C 34.7°F1.5°C 55% Calm Calm -- 29.22 in989.5 mb 0.00 in0.0 mm 0.00 in0.0 mm 0.00 in0.0 mm
10:54 PM 50.3°F10.2°C 34.3°F1.3°C 54% Calm Calm -- 29.22 in989.5 mb 0.00 in0.0 mm 0.00 in0.0 mm 0.00 in0.0 mm
10:49 PM 50.6°F10.3°C 34.6°F1.4°C 54% Calm Calm -- 29.22 in989.5 mb 0.00 in0.0 mm 0.00 in0.0 mm 0.00 in0.0 mm
10:44 PM 51.0°F10.6°C 34.5°F1.4°C 53% Calm Calm -- 29.22 in989.5 mb 0.00 in0.0 mm 0.00 in0.0 mm 0.00 in0.0 mm
10:39 PM 51.1°F10.6°C 34.1°F1.2°C 52% Calm Calm -- 29.22 in989.5 mb 0.00 in0.0 mm 0.00 in0.0 mm 0.00 in0.0 mm
10:34 PM 51.0°F10.6°C 33.5°F0.8°C 51% Calm Calm -- 29.22 in989.5 mb 0.00 in0.0 mm 0.00 in0.0 mm 0.00 in0.0 mm
10:30 PM 51.1°F10.6°C 34.1°F1.2°C 52% Calm Calm -- 29.22 in989.5 mb 0.00 in0.0 mm 0.00 in0.0 mm 0.00 in0.0 mm
10:24 PM 51.5°F10.8°C 34.5°F1.4°C 52% Calm Calm -- 29.22 in989.5 mb 0.00 in0.0 mm 0.00 in0.0 mm 0.00 in0.0 mm
10:19 PM 52.0°F11.1°C 34.4°F1.3°C 51% Calm Calm -- 29.22 in989.5 mb 0.00 in0.0 mm 0.00 in0.0 mm 0.00 in0.0 mm
10:14 PM 52.3°F11.3°C 34.2°F1.2°C 50% Calm Calm -- 29.22 in989.5 mb 0.00 in0.0 mm 0.00 in0.0 mm 0.00 in0.0 mm
10:10 PM 52.7°F11.5°C 34.6°F1.4°C 50% Calm Calm -- 29.22 in989.5 mb 0.00 in0.0 mm 0.00 in0.0 mm 0.00 in0.0 mm
10:04 PM 53.1°F11.7°C 34.5°F1.4°C 49% Calm Calm -- 29.21 in989.2 mb 0.00 in0.0 mm 0.00 in0.0 mm 0.00 in0.0 mm
09:59 PM 53.3°F11.8°C 34.1°F1.2°C 48% 0.1 mph NNW0.2 kmh NNW 0.3 mph0.5 kmh 29.21 in989.2 mb 0.00 in0.0 mm 0.00 in0.0 mm 0.00 in0.0 mm
09:54 PM 53.3°F11.8°C 34.1°F1.2°C 48% Calm Calm -- 29.21 in989.2 mb 0.00 in0.0 mm 0.00 in0.0 mm 0.00 in0.0 mm
09:49 PM 53.5°F11.9°C 34.8°F1.6°C 49% Calm Calm -- 29.21 in989.2 mb 0.00 in0.0 mm 0.00 in0.0 mm 0.00 in0.0 mm
09:44 PM 53.9°F12.2°C 35.2°F1.8°C 49% Calm Calm -- 29.21 in989.2 mb 0.00 in0.0 mm 0.00 in0.0 mm 0.00 in0.0 mm
09:39 PM 54.2°F12.3°C 34.4°F1.3°C 47% Calm Calm -- 29.21 in989.2 mb 0.00 in0.0 mm 0.00 in0.0 mm 0.00 in0.0 mm
09:34 PM 54.4°F12.4°C 33.5°F0.8°C 45% Calm Calm -- 29.21 in989.2 mb 0.00 in0.0 mm 0.00 in0.0 mm 0.00 in0.0 mm
09:30 PM 54.7°F12.6°C 33.2°F0.7°C 44% Calm Calm -- 29.20 in988.8 mb 0.00 in0.0 mm 0.00 in0.0 mm 0.00 in0.0 mm
09:24 PM 55.1°F12.8°C 33.6°F0.9°C 44% Calm Calm -- 29.20 in988.8 mb 0.00 in0.0 mm 0.00 in0.0 mm 0.00 in0.0 mm
09:19 PM 55.3°F12.9°C 34.3°F1.3°C 45% Calm Calm -- 29.20 in988.8 mb 0.00 in0.0 mm 0.00 in0.0 mm 0.00 in0.0 mm
09:14 PM 55.6°F13.1°C 34.6°F1.4°C 45% Calm Calm -- 29.20 in988.8 mb 0.00 in0.0 mm 0.00 in0.0 mm 0.00 in0.0 mm
09:09 PM 56.0°F13.3°C 35.0°F1.7°C 45% Calm Calm -- 29.20 in988.8 mb 0.00 in0.0 mm 0.00 in0.0 mm 0.00 in0.0 mm
09:04 PM 56.4°F13.6°C 34.8°F1.6°C 44% Calm Calm -- 29.20 in988.8 mb 0.00 in0.0 mm 0.00 in0.0 mm 0.00 in0.0 mm
08:59 PM 56.7°F13.7°C 33.9°F1.1°C 42% Calm Calm -- 29.20 in988.8 mb 0.00 in0.0 mm 0.00 in0.0 mm 0.00 in0.0 mm
08:54 PM 57.3°F14.1°C 35.0°F1.7°C 43% Calm Calm -- 29.19 in988.5 mb 0.00 in0.0 mm 0.00 in0.0 mm 0.00 in0.0 mm
08:50 PM 57.7°F14.3°C 34.8°F1.6°C 42% Calm Calm -- 29.19 in988.5 mb 0.00 in0.0 mm 0.00 in0.0 mm 0.00 in0.0 mm
08:44 PM 58.3°F14.6°C 34.7°F1.5°C 41% Calm Calm -- 29.19 in988.5 mb 0.00 in0.0 mm 0.00 in0.0 mm 0.00 in0.0 mm
08:39 PM 59.0°F15.0°C 34.7°F1.5°C 40% Calm Calm -- 29.19 in988.5 mb 0.00 in0.0 mm 0.00 in0.0 mm 0.00 in0.0 mm
08:34 PM 59.5°F15.3°C 34.5°F1.4°C 39% Calm Calm -- 29.19 in988.5 mb 0.00 in0.0 mm 0.00 in0.0 mm 0.00 in0.0 mm
08:30 PM 59.8°F15.4°C 34.1°F1.2°C 38% Calm Calm -- 29.19 in988.5 mb 0.00 in0.0 mm 0.00 in0.0 mm 0.00 in0.0 mm
08:25 PM 60.0°F15.6°C 32.3°F0.2°C 35% Calm Calm -- 29.19 in988.5 mb 0.00 in0.0 mm 0.00 in0.0 mm 0.00 in0.0 mm
08:19 PM 60.0°F15.6°C 32.3°F0.2°C 35% Calm Calm -- 29.19 in988.5 mb 0.00 in0.0 mm 0.00 in0.0 mm 0.00 in0.0 mm
08:14 PM 60.4°F15.8°C 33.3°F0.7°C 36% Calm Calm -- 29.19 in988.5 mb 0.00 in0.0 mm 0.00 in0.0 mm 0.00 in0.0 mm
08:10 PM 60.7°F15.9°C 32.9°F0.5°C 35% Calm Calm -- 29.19 in988.5 mb 0.00 in0.0 mm 0.00 in0.0 mm 0.00 in0.0 mm
08:04 PM 61.1°F16.2°C 32.5°F0.3°C 34% Calm Calm -- 29.19 in988.5 mb 0.00 in0.0 mm 0.00 in0.0 mm 0.00 in0.0 mm
08:00 PM 61.4°F16.3°C 32.8°F0.4°C 34% Calm Calm -- 29.18 in988.1 mb 0.00 in0.0 mm 0.00 in0.0 mm 0.00 in0.0 mm
07:54 PM 62.1°F16.7°C 34.8°F1.6°C 36% Calm Calm -- 29.18 in988.1 mb 0.00 in0.0 mm 0.00 in0.0 mm 0.00 in0.0 mm
07:50 PM 62.3°F16.8°C 35.0°F1.7°C 36% Calm Calm -- 29.18 in988.1 mb 0.00 in0.0 mm 0.00 in0.0 mm 0.00 in0.0 mm
07:44 PM 62.7°F17.1°C 33.2°F0.7°C 33% Calm Calm -- 29.18 in988.1 mb 0.00 in0.0 mm 0.00 in0.0 mm 0.00 in0.0 mm
07:39 PM 63.2°F17.3°C 34.4°F1.3°C 34% Calm Calm -- 29.18 in988.1 mb 0.00 in0.0 mm 0.00 in0.0 mm 0.00 in0.0 mm
07:34 PM 63.9°F17.7°C 35.0°F1.7°C 34% Calm Calm -- 29.18 in988.1 mb 0.00 in0.0 mm 0.00 in0.0 mm 0.00 in0.0 mm
07:29 PM 64.3°F17.9°C 34.6°F1.4°C 33% Calm Calm -- 29.18 in988.1 mb 0.00 in0.0 mm 0.00 in0.0 mm 0.00 in0.0 mm
07:25 PM 64.6°F18.1°C 34.8°F1.6°C 33% Calm Calm -- 29.18 in988.1 mb 0.00 in0.0 mm 0.00 in0.0 mm 0.00 in0.0 mm
07:20 PM 65.1°F18.4°C 34.5°F1.4°C 32% Calm Calm -- 29.18 in988.1 mb 0.00 in0.0 mm 0.00 in0.0 mm 0.00 in0.0 mm
07:14 PM 66.0°F18.9°C 35.3°F1.8°C 32% Calm Calm -- 29.17 in987.8 mb 0.00 in0.0 mm 0.00 in0.0 mm 0.00 in0.0 mm
07:09 PM 66.9°F19.4°C 36.1°F2.3°C 32% Calm Calm -- 29.17 in987.8 mb 0.00 in0.0 mm 0.00 in0.0 mm 0.00 in0.0 mm
07:04 PM 67.7°F19.8°C 36.0°F2.2°C 31% Calm Calm -- 29.17 in987.8 mb 0.00 in0.0 mm 0.00 in0.0 mm 0.00 in0.0 mm
07:00 PM 68.3°F20.2°C 35.7°F2.1°C 30% Calm Calm -- 29.17 in987.8 mb 0.00 in0.0 mm 0.00 in0.0 mm 0.00 in0.0 mm
06:54 PM 69.4°F20.8°C 34.9°F1.6°C 28% 0.3 mph NNW0.5 kmh NNW 0.5 mph0.8 kmh 29.17 in987.8 mb 0.00 in0.0 mm 0.00 in0.0 mm 0.00 in0.0 mm
06:49 PM 70.2°F21.2°C 34.6°F1.4°C 27% Calm Calm -- 29.16 in987.5 mb 0.00 in0.0 mm 0.00 in0.0 mm 0.00 in0.0 mm
06:44 PM 70.7°F21.5°C 35.1°F1.7°C 27% 0.1 mph NNW0.2 kmh NNW 0.6 mph1.0 kmh 29.16 in987.5 mb 0.00 in0.0 mm 0.00 in0.0 mm 0.00 in0.0 mm
06:39 PM 71.1°F21.7°C 34.5°F1.4°C 26% 0.9 mph NNW1.4 kmh NNW 1.9 mph3.1 kmh 29.16 in987.5 mb 0.00 in0.0 mm 0.00 in0.0 mm 0.00 in0.0 mm
06:34 PM 71.6°F22.0°C 34.9°F1.6°C 26% 0.8 mph NNW1.3 kmh NNW 1.9 mph3.1 kmh 29.16 in987.5 mb 0.00 in0.0 mm 0.00 in0.0 mm 0.00 in0.0 mm
06:30 PM 71.9°F22.2°C 35.1°F1.7°C 26% 0.4 mph NNW0.6 kmh NNW 1.0 mph1.6 kmh 29.16 in987.5 mb 0.00 in0.0 mm 0.00 in0.0 mm 0.00 in0.0 mm
06:24 PM 72.3°F22.4°C 33.5°F0.8°C 24% Calm Calm -- 29.15 in987.1 mb 0.00 in0.0 mm 0.00 in0.0 mm 0.00 in0.0 mm
06:20 PM 72.7°F22.6°C 32.8°F0.4°C 23% 0.7 mph NNW1.1 kmh NNW 1.6 mph2.6 kmh 29.15 in987.1 mb 0.00 in0.0 mm 0.00 in0.0 mm 0.00 in0.0 mm
06:14 PM 73.6°F23.1°C 33.5°F0.8°C 23% 0.3 mph NW0.5 kmh NW 0.7 mph1.1 kmh 29.15 in987.1 mb 0.00 in0.0 mm 0.00 in0.0 mm 0.00 in0.0 mm
06:10 PM 74.2°F23.4°C 34.0°F1.1°C 23% Calm Calm -- 29.15 in987.1 mb 0.00 in0.0 mm 0.00 in0.0 mm 0.00 in0.0 mm
06:04 PM 75.1°F23.9°C 33.7°F0.9°C 22% 1.0 mph SSW1.6 kmh SSW 1.9 mph3.1 kmh 29.15 in987.1 mb 0.00 in0.0 mm 0.00 in0.0 mm 0.00 in0.0 mm
06:00 PM 75.8°F24.3°C 34.2°F1.2°C 22% 0.3 mph SSW0.5 kmh SSW 1.2 mph1.9 kmh 29.15 in987.1 mb 0.00 in0.0 mm 0.00 in0.0 mm 0.00 in0.0 mm
05:55 PM 76.6°F24.8°C 34.9°F1.6°C 22% Calm Calm -- 29.15 in987.1 mb 0.00 in0.0 mm 0.00 in0.0 mm 0.00 in0.0 mm
05:50 PM 77.0°F25.0°C 35.2°F1.8°C 22% Calm Calm -- 29.15 in987.1 mb 0.00 in0.0 mm 0.00 in0.0 mm 0.00 in0.0 mm
05:44 PM 77.3°F25.2°C 34.3°F1.3°C 21% 0.7 mph SSE1.1 kmh SSE 1.4 mph2.3 kmh 29.14 in986.8 mb 0.00 in0.0 mm 0.00 in0.0 mm 0.00 in0.0 mm
05:40 PM 77.7°F25.4°C 34.6°F1.4°C 21% 2.0 mph SSE3.2 kmh SSE 2.7 mph4.3 kmh 29.15 in987.1 mb 0.00 in0.0 mm 0.00 in0.0 mm 0.00 in0.0 mm
05:34 PM 78.5°F25.8°C 34.1°F1.2°C 20% 1.8 mph SSE2.9 kmh SSE 2.8 mph4.5 kmh 29.14 in986.8 mb 0.00 in0.0 mm 0.00 in0.0 mm 0.00 in0.0 mm
05:30 PM 79.1°F26.2°C 35.8°F2.1°C 21% 2.1 mph SSE3.4 kmh SSE 2.7 mph4.3 kmh 29.14 in986.8 mb 0.00 in0.0 mm 0.00 in0.0 mm 0.00 in0.0 mm
05:24 PM 80.2°F26.8°C 36.7°F2.6°C 21% 2.0 mph SSE3.2 kmh SSE 2.6 mph4.2 kmh 29.14 in986.8 mb 0.00 in0.0 mm 0.00 in0.0 mm 0.00 in0.0 mm
05:19 PM 80.9°F27.2°C 36.1°F2.3°C 20% 1.9 mph SSE3.1 kmh SSE 2.8 mph4.5 kmh 29.14 in986.8 mb 0.00 in0.0 mm 0.00 in0.0 mm 0.00 in0.0 mm
05:14 PM 81.3°F27.4°C 35.1°F1.7°C 19% 1.2 mph SSE1.9 kmh SSE 2.1 mph3.4 kmh 29.14 in986.8 mb 0.00 in0.0 mm 0.00 in0.0 mm 0.00 in0.0 mm
05:09 PM 81.5°F27.5°C 35.2°F1.8°C 19% 2.1 mph SSE3.4 kmh SSE 3.2 mph5.1 kmh 29.14 in986.8 mb 0.00 in0.0 mm 0.00 in0.0 mm 0.00 in0.0 mm
05:04 PM 82.0°F27.8°C 34.3°F1.3°C 18% 1.9 mph SSW3.1 kmh SSW 3.2 mph5.1 kmh 29.15 in987.1 mb 0.00 in0.0 mm 0.00 in0.0 mm 0.00 in0.0 mm
05:00 PM 82.2°F27.9°C 34.5°F1.4°C 18% 1.5 mph S2.4 kmh S 3.1 mph5.0 kmh 29.14 in986.8 mb 0.00 in0.0 mm 0.00 in0.0 mm 0.00 in0.0 mm
04:54 PM 82.3°F27.9°C 33.1°F0.6°C 17% 0.6 mph SW1.0 kmh SW 2.0 mph3.2 kmh 29.14 in986.8 mb 0.00 in0.0 mm 0.00 in0.0 mm 0.00 in0.0 mm
04:50 PM 82.3°F27.9°C 34.5°F1.4°C 18% 1.0 mph SSW1.6 kmh SSW 2.4 mph3.9 kmh 29.15 in987.1 mb 0.00 in0.0 mm 0.00 in0.0 mm 0.00 in0.0 mm
04:44 PM 82.2°F27.9°C 33.0°F0.6°C 17% 1.0 mph SW1.6 kmh SW 2.7 mph4.3 kmh 29.14 in986.8 mb 0.00 in0.0 mm 0.00 in0.0 mm 0.00 in0.0 mm
04:40 PM 82.4°F28.0°C 33.2°F0.7°C 17% 1.3 mph SW2.1 kmh SW 2.9 mph4.7 kmh 29.15 in987.1 mb 0.00 in0.0 mm 0.00 in0.0 mm 0.00 in0.0 mm
04:34 PM 82.7°F28.2°C 34.9°F1.6°C 18% 2.0 mph SSE3.2 kmh SSE 3.5 mph5.6 kmh 29.15 in987.1 mb 0.00 in0.0 mm 0.00 in0.0 mm 0.00 in0.0 mm
04:29 PM 83.0°F28.3°C 35.1°F1.7°C 18% 1.0 mph SSW1.6 kmh SSW 2.5 mph4.0 kmh 29.15 in987.1 mb 0.00 in0.0 mm 0.00 in0.0 mm 0.00 in0.0 mm
04:24 PM 83.2°F28.4°C 35.3°F1.8°C 18% 2.4 mph SSW3.9 kmh SSW 3.6 mph5.8 kmh 29.15 in987.1 mb 0.00 in0.0 mm 0.00 in0.0 mm 0.00 in0.0 mm
04:20 PM 83.1°F28.4°C 35.2°F1.8°C 18% 1.5 mph S2.4 kmh S 2.8 mph4.5 kmh 29.15 in987.1 mb 0.00 in0.0 mm 0.00 in0.0 mm 0.00 in0.0 mm
04:14 PM 83.0°F28.3°C 35.1°F1.7°C 18% 1.5 mph SW2.4 kmh SW 3.0 mph4.8 kmh 29.15 in987.1 mb 0.00 in0.0 mm 0.00 in0.0 mm 0.00 in0.0 mm
04:09 PM 83.3°F28.5°C 33.9°F1.1°C 17% 2.0 mph WSW3.2 kmh WSW 3.9 mph6.3 kmh 29.15 in987.1 mb 0.00 in0.0 mm 0.00 in0.0 mm 0.00 in0.0 mm
04:04 PM 83.7°F28.7°C 32.7°F0.4°C 16% 1.4 mph SW2.3 kmh SW 3.6 mph5.8 kmh 29.15 in987.1 mb 0.00 in0.0 mm 0.00 in0.0 mm 0.00 in0.0 mm
04:00 PM 83.8°F28.8°C 32.8°F0.4°C 16% 2.1 mph S3.4 kmh S 3.6 mph5.8 kmh 29.15 in987.1 mb 0.00 in0.0 mm 0.00 in0.0 mm 0.00 in0.0 mm
03:54 PM 83.7°F28.7°C 35.7°F2.1°C 18% 1.7 mph S2.7 kmh S 3.7 mph6.0 kmh 29.15 in987.1 mb 0.00 in0.0 mm 0.00 in0.0 mm 0.00 in0.0 mm
03:50 PM 83.9°F28.8°C 35.8°F2.1°C 18% 1.2 mph S1.9 kmh S 3.3 mph5.3 kmh 29.15 in987.1 mb 0.00 in0.0 mm 0.00 in0.0 mm 0.00 in0.0 mm
03:44 PM 83.9°F28.8°C 35.8°F2.1°C 18% 1.5 mph SSW2.4 kmh SSW 2.8 mph4.5 kmh 29.15 in987.1 mb 0.00 in0.0 mm 0.00 in0.0 mm 0.00 in0.0 mm
03:39 PM 83.9°F28.8°C 35.8°F2.1°C 18% 1.7 mph SW2.7 kmh SW 4.6 mph7.4 kmh 29.15 in987.1 mb 0.00 in0.0 mm 0.00 in0.0 mm 0.00 in0.0 mm
03:34 PM 84.5°F29.2°C 36.3°F2.4°C 18% 2.4 mph SW3.9 kmh SW 5.7 mph9.2 kmh 29.15 in987.1 mb 0.00 in0.0 mm 0.00 in0.0 mm 0.00 in0.0 mm
03:30 PM 84.7°F29.3°C 36.5°F2.5°C 18% 1.4 mph SW2.3 kmh SW 3.5 mph5.6 kmh 29.15 in987.1 mb 0.00 in0.0 mm 0.00 in0.0 mm 0.00 in0.0 mm
03:24 PM 84.5°F29.2°C 39.0°F3.9°C 20% 1.0 mph SW1.6 kmh SW 2.6 mph4.2 kmh 29.15 in987.1 mb 0.00 in0.0 mm 0.00 in0.0 mm 0.00 in0.0 mm
03:19 PM 84.7°F29.3°C 40.4°F4.7°C 21% 2.8 mph WSW4.5 kmh WSW 6.7 mph10.8 kmh 29.15 in987.1 mb 0.00 in0.0 mm 0.00 in0.0 mm 0.00 in0.0 mm
03:14 PM 84.7°F29.3°C 40.4°F4.7°C 21% 1.7 mph WSW2.7 kmh WSW 3.4 mph5.5 kmh 29.15 in987.1 mb 0.00 in0.0 mm 0.00 in0.0 mm 0.00 in0.0 mm
03:10 PM 84.6°F29.2°C 39.1°F3.9°C 20% 2.3 mph S3.7 kmh S 4.0 mph6.4 kmh 29.15 in987.1 mb 0.00 in0.0 mm 0.00 in0.0 mm 0.00 in0.0 mm
03:04 PM 84.1°F28.9°C 38.7°F3.7°C 20% 2.6 mph S4.2 kmh S 4.1 mph6.6 kmh 29.15 in987.1 mb 0.00 in0.0 mm 0.00 in0.0 mm 0.00 in0.0 mm
03:00 PM 83.9°F28.8°C 39.8°F4.3°C 21% 2.4 mph SSE3.9 kmh SSE 4.2 mph6.8 kmh 29.15 in987.1 mb 0.00 in0.0 mm 0.00 in0.0 mm 0.00 in0.0 mm
02:54 PM 84.5°F29.2°C 39.0°F3.9°C 20% 3.7 mph WSW6.0 kmh WSW 6.5 mph10.5 kmh 29.15 in987.1 mb 0.00 in0.0 mm 0.00 in0.0 mm 0.00 in0.0 mm
02:50 PM 84.7°F29.3°C 37.9°F3.3°C 19% 2.9 mph S4.7 kmh S 5.5 mph8.9 kmh 29.15 in987.1 mb 0.00 in0.0 mm 0.00 in0.0 mm 0.00 in0.0 mm
02:44 PM 83.9°F28.8°C 35.8°F2.1°C 18% 2.0 mph SSW3.2 kmh SSW 2.9 mph4.7 kmh 29.15 in987.1 mb 0.00 in0.0 mm 0.00 in0.0 mm 0.00 in0.0 mm
02:40 PM 83.7°F28.7°C 35.7°F2.1°C 18% 2.7 mph S4.3 kmh S 3.5 mph5.6 kmh 29.16 in987.5 mb 0.00 in0.0 mm 0.00 in0.0 mm 0.00 in0.0 mm
02:35 PM 83.7°F28.7°C 34.2°F1.2°C 17% 1.4 mph WSW2.3 kmh WSW 2.5 mph4.0 kmh 29.15 in987.1 mb 0.00 in0.0 mm 0.00 in0.0 mm 0.00 in0.0 mm
02:30 PM 83.5°F28.6°C 34.1°F1.2°C 17% 1.9 mph S3.1 kmh S 2.8 mph4.5 kmh 29.16 in987.5 mb 0.00 in0.0 mm 0.00 in0.0 mm 0.00 in0.0 mm
02:25 PM 83.5°F28.6°C 35.5°F1.9°C 18% 0.4 mph S0.6 kmh S 1.7 mph2.7 kmh 29.16 in987.5 mb 0.00 in0.0 mm 0.00 in0.0 mm 0.00 in0.0 mm
02:20 PM 82.9°F28.3°C 36.4°F2.4°C 19% 1.8 mph WSW2.9 kmh WSW 2.8 mph4.5 kmh 29.16 in987.5 mb 0.00 in0.0 mm 0.00 in0.0 mm 0.00 in0.0 mm
02:15 PM 82.5°F28.1°C 36.1°F2.3°C 19% 2.7 mph SSW4.3 kmh SSW 3.9 mph6.3 kmh 29.16 in987.5 mb 0.00 in0.0 mm 0.00 in0.0 mm 0.00 in0.0 mm
02:10 PM 82.3°F27.9°C 35.9°F2.2°C 19% 2.8 mph WSW4.5 kmh WSW 5.6 mph9.0 kmh 29.16 in987.5 mb 0.00 in0.0 mm 0.00 in0.0 mm 0.00 in0.0 mm
02:04 PM 82.4°F28.0°C 34.6°F1.4°C 18% 3.3 mph W5.3 kmh W 4.7 mph7.6 kmh 29.17 in987.8 mb 0.00 in0.0 mm 0.00 in0.0 mm 0.00 in0.0 mm
02:00 PM 82.8°F28.2°C 36.3°F2.4°C 19% 2.7 mph WSW4.3 kmh WSW 5.1 mph8.2 kmh 29.17 in987.8 mb 0.00 in0.0 mm 0.00 in0.0 mm 0.00 in0.0 mm
01:54 PM 82.9°F28.3°C 36.4°F2.4°C 19% 1.7 mph SSE2.7 kmh SSE 2.4 mph3.9 kmh 29.17 in987.8 mb 0.00 in0.0 mm 0.00 in0.0 mm 0.00 in0.0 mm
01:50 PM 82.7°F28.2°C 36.2°F2.3°C 19% 0.9 mph ESE1.4 kmh ESE 2.2 mph3.5 kmh 29.17 in987.8 mb 0.00 in0.0 mm 0.00 in0.0 mm 0.00 in0.0 mm
01:44 PM 82.6°F28.1°C 36.1°F2.3°C 19% 1.8 mph SSE2.9 kmh SSE 3.2 mph5.1 kmh 29.18 in988.1 mb 0.00 in0.0 mm 0.00 in0.0 mm 0.00 in0.0 mm
01:40 PM 82.4°F28.0°C 34.6°F1.4°C 18% 1.9 mph SE3.1 kmh SE 3.0 mph4.8 kmh 29.18 in988.1 mb 0.00 in0.0 mm 0.00 in0.0 mm 0.00 in0.0 mm
01:34 PM 82.2°F27.9°C 35.8°F2.1°C 19% 1.6 mph SSE2.6 kmh SSE 2.8 mph4.5 kmh 29.18 in988.1 mb 0.00 in0.0 mm 0.00 in0.0 mm 0.00 in0.0 mm
01:30 PM 82.2°F27.9°C 34.5°F1.4°C 18% 1.7 mph S2.7 kmh S 3.1 mph5.0 kmh 29.18 in988.1 mb 0.00 in0.0 mm 0.00 in0.0 mm 0.00 in0.0 mm
01:24 PM 81.4°F27.4°C 33.8°F1.0°C 18% 0.9 mph SSW1.4 kmh SSW 2.0 mph3.2 kmh 29.19 in988.5 mb 0.00 in0.0 mm 0.00 in0.0 mm 0.00 in0.0 mm
01:20 PM 81.2°F27.3°C 35.0°F1.7°C 19% 1.8 mph SW2.9 kmh SW 3.1 mph5.0 kmh 29.19 in988.5 mb 0.00 in0.0 mm 0.00 in0.0 mm 0.00 in0.0 mm
01:15 PM 81.5°F27.5°C 35.2°F1.8°C 19% 0.6 mph SSW1.0 kmh SSW 1.9 mph3.1 kmh 29.19 in988.5 mb 0.00 in0.0 mm 0.00 in0.0 mm 0.00 in0.0 mm
01:10 PM 81.4°F27.4°C 35.2°F1.8°C 19% 1.1 mph SW1.8 kmh SW 2.3 mph3.7 kmh 29.19 in988.5 mb 0.00 in0.0 mm 0.00 in0.0 mm 0.00 in0.0 mm
01:04 PM 80.8°F27.1°C 34.7°F1.5°C 19% 1.0 mph SSW1.6 kmh SSW 2.3 mph3.7 kmh 29.20 in988.8 mb 0.00 in0.0 mm 0.00 in0.0 mm 0.00 in0.0 mm
01:00 PM 80.1°F26.7°C 36.6°F2.6°C 21% 1.5 mph S2.4 kmh S 2.7 mph4.3 kmh 29.20 in988.8 mb 0.00 in0.0 mm 0.00 in0.0 mm 0.00 in0.0 mm
12:54 PM 78.9°F26.1°C 36.8°F2.7°C 22% 1.1 mph SE1.8 kmh SE 2.3 mph3.7 kmh 29.20 in988.8 mb 0.00 in0.0 mm 0.00 in0.0 mm 0.00 in0.0 mm
12:50 PM 78.0°F25.6°C 34.9°F1.6°C 21% 2.0 mph SW3.2 kmh SW 3.5 mph5.6 kmh 29.20 in988.8 mb 0.00 in0.0 mm 0.00 in0.0 mm 0.00 in0.0 mm
12:45 PM 76.8°F24.9°C 35.1°F1.7°C 22% 1.5 mph SSW2.4 kmh SSW 2.9 mph4.7 kmh 29.20 in988.8 mb 0.00 in0.0 mm 0.00 in0.0 mm 0.00 in0.0 mm
12:40 PM 76.7°F24.8°C 33.8°F1.0°C 21% 2.5 mph WSW4.0 kmh WSW 3.5 mph5.6 kmh 29.21 in989.2 mb 0.00 in0.0 mm 0.00 in0.0 mm 0.00 in0.0 mm
12:35 PM 77.0°F25.0°C 34.1°F1.2°C 21% 1.5 mph SW2.4 kmh SW 2.7 mph4.3 kmh 29.21 in989.2 mb 0.00 in0.0 mm 0.00 in0.0 mm 0.00 in0.0 mm
12:30 PM 76.7°F24.8°C 35.0°F1.7°C 22% 2.2 mph SSW3.5 kmh SSW 3.4 mph5.5 kmh 29.21 in989.2 mb 0.00 in0.0 mm 0.00 in0.0 mm 0.00 in0.0 mm
12:25 PM 76.0°F24.4°C 35.5°F1.9°C 23% 1.7 mph S2.7 kmh S 2.7 mph4.3 kmh 29.21 in989.2 mb 0.00 in0.0 mm 0.00 in0.0 mm 0.00 in0.0 mm
12:20 PM 75.4°F24.1°C 33.9°F1.1°C 22% 1.9 mph SW3.1 kmh SW 3.4 mph5.5 kmh 29.21 in989.2 mb 0.00 in0.0 mm 0.00 in0.0 mm 0.00 in0.0 mm
12:15 PM 75.0°F23.9°C 34.7°F1.5°C 23% 2.3 mph W3.7 kmh W 3.9 mph6.3 kmh 29.21 in989.2 mb 0.00 in0.0 mm 0.00 in0.0 mm 0.00 in0.0 mm
12:10 PM 74.0°F23.3°C 34.9°F1.6°C 24% 1.2 mph SSW1.9 kmh SSW 2.3 mph3.7 kmh 29.22 in989.5 mb 0.00 in0.0 mm 0.00 in0.0 mm 0.00 in0.0 mm
12:05 PM 72.9°F22.7°C 35.0°F1.7°C 25% 1.3 mph SSW2.1 kmh SSW 2.6 mph4.2 kmh 29.22 in989.5 mb 0.00 in0.0 mm 0.00 in0.0 mm 0.00 in0.0 mm
12:00 PM 71.8°F22.1°C 34.1°F1.2°C 25% 1.9 mph SW3.1 kmh SW 2.8 mph4.5 kmh 29.22 in989.5 mb 0.00 in0.0 mm 0.00 in0.0 mm 0.00 in0.0 mm
11:55 AM 70.9°F21.6°C 33.3°F0.7°C 25% 1.9 mph WSW3.1 kmh WSW 2.8 mph4.5 kmh 29.22 in989.5 mb 0.00 in0.0 mm 0.00 in0.0 mm 0.00 in0.0 mm
11:50 AM 70.0°F21.1°C 33.5°F0.8°C 26% 2.2 mph SW3.5 kmh SW 3.1 mph5.0 kmh 29.22 in989.5 mb 0.00 in0.0 mm 0.00 in0.0 mm 0.00 in0.0 mm
11:45 AM 69.2°F20.7°C 32.9°F0.5°C 26% 2.0 mph WSW3.2 kmh WSW 3.3 mph5.3 kmh 29.23 in989.8 mb 0.00 in0.0 mm 0.00 in0.0 mm 0.00 in0.0 mm
11:40 AM 69.0°F20.6°C 32.7°F0.4°C 26% 1.6 mph WSW2.6 kmh WSW 2.9 mph4.7 kmh 29.23 in989.8 mb 0.00 in0.0 mm 0.00 in0.0 mm 0.00 in0.0 mm
11:35 AM 68.7°F20.4°C 34.3°F1.3°C 28% 2.3 mph SW3.7 kmh SW 3.1 mph5.0 kmh 29.23 in989.8 mb 0.00 in0.0 mm 0.00 in0.0 mm 0.00 in0.0 mm
11:30 AM 68.0°F20.0°C 34.6°F1.4°C 29% 1.6 mph SW2.6 kmh SW 3.1 mph5.0 kmh 29.23 in989.8 mb 0.00 in0.0 mm 0.00 in0.0 mm 0.00 in0.0 mm
11:24 AM 67.2°F19.6°C 34.7°F1.5°C 30% 1.2 mph SW1.9 kmh SW 2.6 mph4.2 kmh 29.23 in989.8 mb 0.00 in0.0 mm 0.00 in0.0 mm 0.00 in0.0 mm
11:20 AM 66.7°F19.3°C 34.3°F1.3°C 30% 2.2 mph SSW3.5 kmh SSW 3.1 mph5.0 kmh 29.23 in989.8 mb 0.00 in0.0 mm 0.00 in0.0 mm 0.00 in0.0 mm
11:14 AM 65.6°F18.7°C 34.9°F1.6°C 32% 2.1 mph SSW3.4 kmh SSW 2.8 mph4.5 kmh 29.23 in989.8 mb 0.00 in0.0 mm 0.00 in0.0 mm 0.00 in0.0 mm
11:09 AM 64.3°F17.9°C 34.6°F1.4°C 33% 0.9 mph SW1.4 kmh SW 1.8 mph2.9 kmh 29.24 in990.2 mb 0.00 in0.0 mm 0.00 in0.0 mm 0.00 in0.0 mm
11:04 AM 63.7°F17.6°C 34.8°F1.6°C 34% 1.1 mph SW1.8 kmh SW 2.3 mph3.7 kmh 29.24 in990.2 mb 0.00 in0.0 mm 0.00 in0.0 mm 0.00 in0.0 mm
11:00 AM 63.2°F17.3°C 33.6°F0.9°C 33% 1.9 mph SW3.1 kmh SW 2.5 mph4.0 kmh 29.24 in990.2 mb 0.00 in0.0 mm 0.00 in0.0 mm 0.00 in0.0 mm
10:54 AM 62.2°F16.8°C 34.2°F1.2°C 35% 1.3 mph SW2.1 kmh SW 2.4 mph3.9 kmh 29.24 in990.2 mb 0.00 in0.0 mm 0.00 in0.0 mm 0.00 in0.0 mm
10:50 AM 61.6°F16.4°C 33.7°F0.9°C 35% 1.6 mph SW2.6 kmh SW 2.2 mph3.5 kmh 29.24 in990.2 mb 0.00 in0.0 mm 0.00 in0.0 mm 0.00 in0.0 mm
10:44 AM 60.8°F16.0°C 33.7°F0.9°C 36% 0.9 mph SSW1.4 kmh SSW 2.0 mph3.2 kmh 29.24 in990.2 mb 0.00 in0.0 mm 0.00 in0.0 mm 0.00 in0.0 mm
10:40 AM 60.5°F15.8°C 34.1°F1.2°C 37% 1.5 mph SW2.4 kmh SW 2.4 mph3.9 kmh 29.25 in990.5 mb 0.00 in0.0 mm 0.00 in0.0 mm 0.00 in0.0 mm
10:34 AM 59.5°F15.3°C 34.5°F1.4°C 39% 1.2 mph SSW1.9 kmh SSW 2.1 mph3.4 kmh 29.25 in990.5 mb 0.00 in0.0 mm 0.00 in0.0 mm 0.00 in0.0 mm
10:30 AM 58.5°F14.7°C 33.6°F0.9°C 39% 1.1 mph SSW1.8 kmh SSW 2.1 mph3.4 kmh 29.25 in990.5 mb 0.00 in0.0 mm 0.00 in0.0 mm 0.00 in0.0 mm
10:24 AM 57.4°F14.1°C 33.3°F0.7°C 40% 1.0 mph SW1.6 kmh SW 2.0 mph3.2 kmh 29.25 in990.5 mb 0.00 in0.0 mm 0.00 in0.0 mm 0.00 in0.0 mm
10:20 AM 57.0°F13.9°C 33.5°F0.8°C 41% 1.6 mph SW2.6 kmh SW 2.4 mph3.9 kmh 29.25 in990.5 mb 0.00 in0.0 mm 0.00 in0.0 mm 0.00 in0.0 mm
10:14 AM 56.7°F13.7°C 34.5°F1.4°C 43% 1.5 mph SW2.4 kmh SW 2.5 mph4.0 kmh 29.26 in990.9 mb 0.00 in0.0 mm 0.00 in0.0 mm 0.00 in0.0 mm
10:10 AM 56.5°F13.6°C 34.9°F1.6°C 44% 1.1 mph SW1.8 kmh SW 1.9 mph3.1 kmh 29.26 in990.9 mb 0.00 in0.0 mm 0.00 in0.0 mm 0.00 in0.0 mm
10:04 AM 55.2°F12.9°C 34.2°F1.2°C 45% 0.2 mph SSW0.3 kmh SSW 0.9 mph1.4 kmh 29.26 in990.9 mb 0.00 in0.0 mm 0.00 in0.0 mm 0.00 in0.0 mm
10:00 AM 53.9°F12.2°C 34.7°F1.5°C 48% 0.2 mph SSW0.3 kmh SSW 0.8 mph1.3 kmh 29.26 in990.9 mb 0.00 in0.0 mm 0.00 in0.0 mm 0.00 in0.0 mm
09:54 AM 52.2°F11.2°C 33.6°F0.9°C 49% 0.3 mph SW0.5 kmh SW 0.5 mph0.8 kmh 29.26 in990.9 mb 0.00 in0.0 mm 0.00 in0.0 mm 0.00 in0.0 mm
09:50 AM 51.6°F10.9°C 33.6°F0.9°C 50% 1.5 mph SW2.4 kmh SW 2.1 mph3.4 kmh 29.26 in990.9 mb 0.00 in0.0 mm 0.00 in0.0 mm 0.00 in0.0 mm
09:44 AM 52.0°F11.1°C 34.4°F1.3°C 51% 2.1 mph SW3.4 kmh SW 2.4 mph3.9 kmh 29.26 in990.9 mb 0.00 in0.0 mm 0.00 in0.0 mm 0.00 in0.0 mm
09:39 AM 52.1°F11.2°C 34.0°F1.1°C 50% 0.4 mph S0.6 kmh S 1.2 mph1.9 kmh 29.26 in990.9 mb 0.00 in0.0 mm 0.00 in0.0 mm 0.00 in0.0 mm
09:35 AM 51.3°F10.7°C 34.3°F1.3°C 52% 0.4 mph SSE0.6 kmh SSE 1.6 mph2.6 kmh 29.26 in990.9 mb 0.00 in0.0 mm 0.00 in0.0 mm 0.00 in0.0 mm
09:30 AM 49.8°F9.9°C 32.9°F0.5°C 52% 0.6 mph SSE1.0 kmh SSE 1.8 mph2.9 kmh 29.26 in990.9 mb 0.00 in0.0 mm 0.00 in0.0 mm 0.00 in0.0 mm
09:24 AM 48.5°F9.2°C 32.6°F0.3°C 54% Calm Calm 0.3 mph0.5 kmh 29.26 in990.9 mb 0.00 in0.0 mm 0.00 in0.0 mm 0.00 in0.0 mm
09:19 AM 48.0°F8.9°C 32.6°F0.3°C 55% 0.1 mph SSE0.2 kmh SSE 0.3 mph0.5 kmh 29.26 in990.9 mb 0.00 in0.0 mm 0.00 in0.0 mm 0.00 in0.0 mm
09:14 AM 47.4°F8.6°C 32.9°F0.5°C 57% 0.1 mph SSE0.2 kmh SSE 0.4 mph0.6 kmh 29.26 in990.9 mb 0.00 in0.0 mm 0.00 in0.0 mm 0.00 in0.0 mm
09:09 AM 46.2°F7.9°C 32.2°F0.1°C 58% 0.5 mph SSW0.8 kmh SSW 1.3 mph2.1 kmh 29.26 in990.9 mb 0.00 in0.0 mm 0.00 in0.0 mm 0.00 in0.0 mm
09:05 AM 46.1°F7.8°C 32.6°F0.3°C 59% 1.0 mph SSW1.6 kmh SSW 1.7 mph2.7 kmh 29.26 in990.9 mb 0.00 in0.0 mm 0.00 in0.0 mm 0.00 in0.0 mm
09:00 AM 46.3°F7.9°C 32.8°F0.4°C 59% 0.3 mph SSW0.5 kmh SSW 0.8 mph1.3 kmh 29.26 in990.9 mb 0.00 in0.0 mm 0.00 in0.0 mm 0.00 in0.0 mm
08:54 AM 45.5°F7.5°C 32.8°F0.4°C 61% Calm Calm -- 29.25 in990.5 mb 0.00 in0.0 mm 0.00 in0.0 mm 0.00 in0.0 mm
08:50 AM 44.9°F7.2°C 32.7°F0.4°C 62% 0.1 mph SSW0.2 kmh SSW 0.5 mph0.8 kmh 29.26 in990.9 mb 0.00 in0.0 mm 0.00 in0.0 mm 0.00 in0.0 mm
08:44 AM 43.9°F6.6°C 32.5°F0.3°C 64% Calm Calm 0.3 mph0.5 kmh 29.25 in990.5 mb 0.00 in0.0 mm 0.00 in0.0 mm 0.00 in0.0 mm
08:39 AM 43.1°F6.2°C 32.1°F0.1°C 65% Calm Calm -- 29.25 in990.5 mb 0.00 in0.0 mm 0.00 in0.0 mm 0.00 in0.0 mm
08:34 AM 42.0°F5.6°C 31.9°F-0.1°C 67% Calm Calm -- 29.25 in990.5 mb 0.00 in0.0 mm 0.00 in0.0 mm 0.00 in0.0 mm
08:30 AM 41.0°F5.0°C 31.3°F-0.4°C 68% Calm Calm -- 29.25 in990.5 mb 0.00 in0.0 mm 0.00 in0.0 mm 0.00 in0.0 mm
08:24 AM 40.0°F4.4°C 31.0°F-0.6°C 70% Calm Calm -- 29.24 in990.2 mb 0.00 in0.0 mm 0.00 in0.0 mm 0.00 in0.0 mm
08:19 AM 39.5°F4.2°C 30.9°F-0.6°C 71% Calm Calm -- 29.24 in990.2 mb 0.00 in0.0 mm 0.00 in0.0 mm 0.00 in0.0 mm
08:14 AM 38.7°F3.7°C 30.5°F-0.8°C 72% Calm Calm -- 29.24 in990.2 mb 0.00 in0.0 mm 0.00 in0.0 mm 0.00 in0.0 mm
08:09 AM 37.9°F3.3°C 30.0°F-1.1°C 73% Calm Calm -- 29.23 in989.8 mb 0.00 in0.0 mm 0.00 in0.0 mm 0.00 in0.0 mm
08:04 AM 37.1°F2.8°C 29.6°F-1.3°C 74% 1.1 mph ENE1.8 kmh ENE 1.5 mph2.4 kmh 29.23 in989.8 mb 0.00 in0.0 mm 0.00 in0.0 mm 0.00 in0.0 mm
08:00 AM 36.8°F2.7°C 29.3°F-1.5°C 74% 0.1 mph ENE0.2 kmh ENE 0.3 mph0.5 kmh 29.22 in989.5 mb 0.00 in0.0 mm 0.00 in0.0 mm 0.00 in0.0 mm
07:54 AM 36.7°F2.6°C 28.9°F-1.7°C 73% Calm Calm -- 29.22 in989.5 mb 0.00 in0.0 mm 0.00 in0.0 mm 0.00 in0.0 mm
07:50 AM 36.8°F2.7°C 29.3°F-1.5°C 74% Calm Calm -- 29.22 in989.5 mb 0.00 in0.0 mm 0.00 in0.0 mm 0.00 in0.0 mm
07:44 AM 36.7°F2.6°C 29.2°F-1.6°C 74% Calm Calm -- 29.22 in989.5 mb 0.00 in0.0 mm 0.00 in0.0 mm 0.00 in0.0 mm
07:39 AM 36.4°F2.4°C 28.9°F-1.7°C 74% Calm Calm -- 29.21 in989.2 mb 0.00 in0.0 mm 0.00 in0.0 mm 0.00 in0.0 mm
07:34 AM 36.3°F2.4°C 28.8°F-1.8°C 74% Calm Calm -- 29.21 in989.2 mb 0.00 in0.0 mm 0.00 in0.0 mm 0.00 in0.0 mm
07:29 AM 36.5°F2.5°C 29.0°F-1.7°C 74% Calm Calm -- 29.21 in989.2 mb 0.00 in0.0 mm 0.00 in0.0 mm 0.00 in0.0 mm
07:24 AM 36.5°F2.5°C 28.3°F-2.1°C 72% Calm Calm -- 29.21 in989.2 mb 0.00 in0.0 mm 0.00 in0.0 mm 0.00 in0.0 mm
07:19 AM 36.5°F2.5°C 28.7°F-1.8°C 73% Calm Calm -- 29.21 in989.2 mb 0.00 in0.0 mm 0.00 in0.0 mm 0.00 in0.0 mm
07:14 AM 36.7°F2.6°C 28.9°F-1.7°C 73% Calm Calm -- 29.21 in989.2 mb 0.00 in0.0 mm 0.00 in0.0 mm 0.00 in0.0 mm
07:09 AM 37.0°F2.8°C 29.2°F-1.6°C 73% Calm Calm -- 29.22 in989.5 mb 0.00 in0.0 mm 0.00 in0.0 mm 0.00 in0.0 mm
07:04 AM 36.8°F2.7°C 28.3°F-2.1°C 71% Calm Calm -- 29.21 in989.2 mb 0.00 in0.0 mm 0.00 in0.0 mm 0.00 in0.0 mm
07:00 AM 36.8°F2.7°C 28.3°F-2.1°C 71% Calm Calm -- 29.21 in989.2 mb 0.00 in0.0 mm 0.00 in0.0 mm 0.00 in0.0 mm
06:54 AM 37.1°F2.8°C 28.9°F-1.7°C 72% Calm Calm -- 29.21 in989.2 mb 0.00 in0.0 mm 0.00 in0.0 mm 0.00 in0.0 mm
06:50 AM 37.2°F2.9°C 28.7°F-1.8°C 71% Calm Calm -- 29.21 in989.2 mb 0.00 in0.0 mm 0.00 in0.0 mm 0.00 in0.0 mm
06:44 AM 37.6°F3.1°C 28.7°F-1.8°C 70% Calm Calm -- 29.21 in989.2 mb 0.00 in0.0 mm 0.00 in0.0 mm 0.00 in0.0 mm
06:39 AM 37.6°F3.1°C 29.4°F-1.4°C 72% Calm Calm -- 29.21 in989.2 mb 0.00 in0.0 mm 0.00 in0.0 mm 0.00 in0.0 mm
06:34 AM 37.6°F3.1°C 29.1°F-1.6°C 71% Calm Calm -- 29.21 in989.2 mb 0.00 in0.0 mm 0.00 in0.0 mm 0.00 in0.0 mm
06:30 AM 37.6°F3.1°C 29.4°F-1.4°C 72% Calm Calm -- 29.20 in988.8 mb 0.00 in0.0 mm 0.00 in0.0 mm 0.00 in0.0 mm
06:24 AM 37.6°F3.1°C 29.1°F-1.6°C 71% 0.6 mph ENE1.0 kmh ENE 1.3 mph2.1 kmh 29.21 in989.2 mb 0.00 in0.0 mm 0.00 in0.0 mm 0.00 in0.0 mm
06:19 AM 37.7°F3.2°C 29.2°F-1.6°C 71% Calm Calm -- 29.21 in989.2 mb 0.00 in0.0 mm 0.00 in0.0 mm 0.00 in0.0 mm
06:15 AM 37.8°F3.2°C 28.9°F-1.7°C 70% Calm Calm -- 29.21 in989.2 mb 0.00 in0.0 mm 0.00 in0.0 mm 0.00 in0.0 mm
06:10 AM 38.0°F3.3°C 29.1°F-1.6°C 70% Calm Calm -- 29.21 in989.2 mb 0.00 in0.0 mm 0.00 in0.0 mm 0.00 in0.0 mm
06:04 AM 38.1°F3.4°C 29.5°F-1.4°C 71% Calm Calm -- 29.20 in988.8 mb 0.00 in0.0 mm 0.00 in0.0 mm 0.00 in0.0 mm
06:00 AM 38.2°F3.4°C 29.3°F-1.5°C 70% Calm Calm -- 29.20 in988.8 mb 0.00 in0.0 mm 0.00 in0.0 mm 0.00 in0.0 mm
05:54 AM 38.3°F3.5°C 29.4°F-1.4°C 70% Calm Calm -- 29.21 in989.2 mb 0.00 in0.0 mm 0.00 in0.0 mm 0.00 in0.0 mm
05:49 AM 38.6°F3.7°C 29.3°F-1.5°C 69% Calm Calm -- 29.20 in988.8 mb 0.00 in0.0 mm 0.00 in0.0 mm 0.00 in0.0 mm
05:44 AM 38.6°F3.7°C 29.3°F-1.5°C 69% Calm Calm -- 29.21 in989.2 mb 0.00 in0.0 mm 0.00 in0.0 mm 0.00 in0.0 mm
05:39 AM 38.7°F3.7°C 29.1°F-1.6°C 68% Calm Calm -- 29.20 in988.8 mb 0.00 in0.0 mm 0.00 in0.0 mm 0.00 in0.0 mm
05:34 AM 38.9°F3.8°C 29.6°F-1.3°C 69% Calm Calm -- 29.20 in988.8 mb 0.00 in0.0 mm 0.00 in0.0 mm 0.00 in0.0 mm
05:30 AM 39.1°F3.9°C 29.1°F-1.6°C 67% Calm Calm -- 29.20 in988.8 mb 0.00 in0.0 mm 0.00 in0.0 mm 0.00 in0.0 mm
05:24 AM 39.3°F4.1°C 28.9°F-1.7°C 66% Calm Calm -- 29.20 in988.8 mb 0.00 in0.0 mm 0.00 in0.0 mm 0.00 in0.0 mm
05:20 AM 39.6°F4.2°C 29.2°F-1.6°C 66% Calm Calm -- 29.20 in988.8 mb 0.00 in0.0 mm 0.00 in0.0 mm 0.00 in0.0 mm
05:14 AM 39.7°F4.3°C 28.9°F-1.7°C 65% Calm Calm -- 29.20 in988.8 mb 0.00 in0.0 mm 0.00 in0.0 mm 0.00 in0.0 mm
05:09 AM 39.7°F4.3°C 29.3°F-1.5°C 66% Calm Calm -- 29.20 in988.8 mb 0.00 in0.0 mm 0.00 in0.0 mm 0.00 in0.0 mm
05:04 AM 39.7°F4.3°C 29.3°F-1.5°C 66% Calm Calm -- 29.20 in988.8 mb 0.00 in0.0 mm 0.00 in0.0 mm 0.00 in0.0 mm
05:00 AM 39.7°F4.3°C 29.7°F-1.3°C 67% Calm Calm -- 29.20 in988.8 mb 0.00 in0.0 mm 0.00 in0.0 mm 0.00 in0.0 mm
04:54 AM 39.6°F4.2°C 29.2°F-1.6°C 66% 0.3 mph ENE0.5 kmh ENE 0.4 mph0.6 kmh 29.20 in988.8 mb 0.00 in0.0 mm 0.00 in0.0 mm 0.00 in0.0 mm
04:50 AM 39.7°F4.3°C 28.9°F-1.7°C 65% 0.7 mph ENE1.1 kmh ENE 1.1 mph1.8 kmh 29.20 in988.8 mb 0.00 in0.0 mm 0.00 in0.0 mm 0.00 in0.0 mm
04:44 AM 40.1°F4.5°C 29.7°F-1.3°C 66% Calm Calm -- 29.20 in988.8 mb 0.00 in0.0 mm 0.00 in0.0 mm 0.00 in0.0 mm
04:40 AM 40.0°F4.4°C 29.6°F-1.3°C 66% Calm Calm -- 29.20 in988.8 mb 0.00 in0.0 mm 0.00 in0.0 mm 0.00 in0.0 mm
04:34 AM 39.6°F4.2°C 28.8°F-1.8°C 65% Calm Calm -- 29.20 in988.8 mb 0.00 in0.0 mm 0.00 in0.0 mm 0.00 in0.0 mm
04:29 AM 39.7°F4.3°C 29.3°F-1.5°C 66% Calm Calm -- 29.20 in988.8 mb 0.00 in0.0 mm 0.00 in0.0 mm 0.00 in0.0 mm
04:24 AM 39.9°F4.4°C 29.8°F-1.2°C 67% Calm Calm -- 29.20 in988.8 mb 0.00 in0.0 mm 0.00 in0.0 mm 0.00 in0.0 mm
04:20 AM 40.0°F4.4°C 29.6°F-1.3°C 66% Calm Calm -- 29.20 in988.8 mb 0.00 in0.0 mm 0.00 in0.0 mm 0.00 in0.0 mm
04:14 AM 40.0°F4.4°C 29.6°F-1.3°C 66% Calm Calm -- 29.20 in988.8 mb 0.00 in0.0 mm 0.00 in0.0 mm 0.00 in0.0 mm
04:10 AM 40.2°F4.6°C 29.0°F-1.7°C 64% Calm Calm -- 29.20 in988.8 mb 0.00 in0.0 mm 0.00 in0.0 mm 0.00 in0.0 mm
04:05 AM 40.4°F4.7°C 29.2°F-1.6°C 64% Calm Calm -- 29.20 in988.8 mb 0.00 in0.0 mm 0.00 in0.0 mm 0.00 in0.0 mm
04:00 AM 40.7°F4.8°C 29.5°F-1.4°C 64% Calm Calm -- 29.20 in988.8 mb 0.00 in0.0 mm 0.00 in0.0 mm 0.00 in0.0 mm
03:54 AM 40.8°F4.9°C 29.6°F-1.3°C 64% Calm Calm -- 29.20 in988.8 mb 0.00 in0.0 mm 0.00 in0.0 mm 0.00 in0.0 mm
03:49 AM 40.8°F4.9°C 29.6°F-1.3°C 64% Calm Calm -- 29.20 in988.8 mb 0.00 in0.0 mm 0.00 in0.0 mm 0.00 in0.0 mm
03:44 AM 41.0°F5.0°C 29.8°F-1.2°C 64% Calm Calm -- 29.20 in988.8 mb 0.00 in0.0 mm 0.00 in0.0 mm 0.00 in0.0 mm
03:39 AM 41.1°F5.1°C 29.9°F-1.2°C 64% Calm Calm -- 29.20 in988.8 mb 0.00 in0.0 mm 0.00 in0.0 mm 0.00 in0.0 mm
03:34 AM 41.3°F5.2°C 29.7°F-1.3°C 63% Calm Calm -- 29.20 in988.8 mb 0.00 in0.0 mm 0.00 in0.0 mm 0.00 in0.0 mm
03:29 AM 41.3°F5.2°C 29.7°F-1.3°C 63% Calm Calm -- 29.20 in988.8 mb 0.00 in0.0 mm 0.00 in0.0 mm 0.00 in0.0 mm
03:24 AM 41.1°F5.1°C 29.5°F-1.4°C 63% Calm Calm -- 29.20 in988.8 mb 0.00 in0.0 mm 0.00 in0.0 mm 0.00 in0.0 mm
03:20 AM 41.0°F5.0°C 29.0°F-1.7°C 62% Calm Calm -- 29.20 in988.8 mb 0.00 in0.0 mm 0.00 in0.0 mm 0.00 in0.0 mm
03:14 AM 41.2°F5.1°C 30.0°F-1.1°C 64% Calm Calm -- 29.20 in988.8 mb 0.00 in0.0 mm 0.00 in0.0 mm 0.00 in0.0 mm
03:10 AM 41.3°F5.2°C 29.7°F-1.3°C 63% Calm Calm -- 29.20 in988.8 mb 0.00 in0.0 mm 0.00 in0.0 mm 0.00 in0.0 mm
03:04 AM 41.3°F5.2°C 30.1°F-1.1°C 64% Calm Calm -- 29.20 in988.8 mb 0.00 in0.0 mm 0.00 in0.0 mm 0.00 in0.0 mm
02:59 AM 41.5°F5.3°C 29.9°F-1.2°C 63% Calm Calm -- 29.20 in988.8 mb 0.00 in0.0 mm 0.00 in0.0 mm 0.00 in0.0 mm
02:54 AM 41.8°F5.4°C 30.1°F-1.1°C 63% Calm Calm -- 29.20 in988.8 mb 0.00 in0.0 mm 0.00 in0.0 mm 0.00 in0.0 mm
02:49 AM 42.2°F5.7°C 30.1°F-1.1°C 62% Calm Calm -- 29.20 in988.8 mb 0.00 in0.0 mm 0.00 in0.0 mm 0.00 in0.0 mm
02:44 AM 42.3°F5.7°C 30.2°F-1.0°C 62% Calm Calm -- 29.20 in988.8 mb 0.00 in0.0 mm 0.00 in0.0 mm 0.00 in0.0 mm
02:39 AM 42.6°F5.9°C 29.7°F-1.3°C 60% Calm Calm -- 29.21 in989.2 mb 0.00 in0.0 mm 0.00 in0.0 mm 0.00 in0.0 mm
02:35 AM 42.7°F5.9°C 30.2°F-1.0°C 61% Calm Calm -- 29.21 in989.2 mb 0.00 in0.0 mm 0.00 in0.0 mm 0.00 in0.0 mm
02:29 AM 43.1°F6.2°C 29.8°F-1.2°C 59% Calm Calm -- 29.21 in989.2 mb 0.00 in0.0 mm 0.00 in0.0 mm 0.00 in0.0 mm
02:24 AM 43.5°F6.4°C 30.5°F-0.8°C 60% Calm Calm -- 29.21 in989.2 mb 0.00 in0.0 mm 0.00 in0.0 mm 0.00 in0.0 mm
02:19 AM 43.7°F6.5°C 30.3°F-0.9°C 59% Calm Calm -- 29.21 in989.2 mb 0.00 in0.0 mm 0.00 in0.0 mm 0.00 in0.0 mm
02:14 AM 43.8°F6.6°C 30.4°F-0.9°C 59% Calm Calm 0.3 mph0.5 kmh 29.21 in989.2 mb 0.00 in0.0 mm 0.00 in0.0 mm 0.00 in0.0 mm
02:10 AM 43.8°F6.6°C 30.4°F-0.9°C 59% Calm Calm -- 29.21 in989.2 mb 0.00 in0.0 mm 0.00 in0.0 mm 0.00 in0.0 mm
02:04 AM 43.9°F6.6°C 30.5°F-0.8°C 59% Calm Calm -- 29.21 in989.2 mb 0.00 in0.0 mm 0.00 in0.0 mm 0.00 in0.0 mm
01:59 AM 44.2°F6.8°C 30.8°F-0.7°C 59% Calm Calm -- 29.21 in989.2 mb 0.00 in0.0 mm 0.00 in0.0 mm 0.00 in0.0 mm
01:54 AM 44.6°F7.0°C 30.7°F-0.7°C 58% Calm Calm -- 29.21 in989.2 mb 0.00 in0.0 mm 0.00 in0.0 mm 0.00 in0.0 mm
01:49 AM 44.8°F7.1°C 30.1°F-1.1°C 56% Calm Calm -- 29.21 in989.2 mb 0.00 in0.0 mm 0.00 in0.0 mm 0.00 in0.0 mm
01:44 AM 45.1°F7.3°C 30.8°F-0.7°C 57% Calm Calm -- 29.21 in989.2 mb 0.00 in0.0 mm 0.00 in0.0 mm 0.00 in0.0 mm
01:39 AM 45.1°F7.3°C 30.8°F-0.7°C 57% 0.9 mph ENE1.4 kmh ENE 1.5 mph2.4 kmh 29.21 in989.2 mb 0.00 in0.0 mm 0.00 in0.0 mm 0.00 in0.0 mm
01:34 AM 45.3°F7.4°C 31.0°F-0.6°C 57% Calm Calm 0.3 mph0.5 kmh 29.20 in988.8 mb 0.00 in0.0 mm 0.00 in0.0 mm 0.00 in0.0 mm
01:29 AM 45.7°F7.6°C 30.5°F-0.8°C 55% Calm Calm -- 29.21 in989.2 mb 0.00 in0.0 mm 0.00 in0.0 mm 0.00 in0.0 mm
01:24 AM 46.0°F7.8°C 31.2°F-0.4°C 56% Calm Calm -- 29.21 in989.2 mb 0.00 in0.0 mm 0.00 in0.0 mm 0.00 in0.0 mm
01:19 AM 46.1°F7.8°C 30.8°F-0.7°C 55% Calm Calm -- 29.21 in989.2 mb 0.00 in0.0 mm 0.00 in0.0 mm 0.00 in0.0 mm
01:14 AM 46.2°F7.9°C 29.1°F-1.6°C 51% Calm Calm -- 29.20 in988.8 mb 0.00 in0.0 mm 0.00 in0.0 mm 0.00 in0.0 mm
01:09 AM 46.2°F7.9°C 29.1°F-1.6°C 51% 0.3 mph ENE0.5 kmh ENE 0.6 mph1.0 kmh 29.20 in988.8 mb 0.00 in0.0 mm 0.00 in0.0 mm 0.00 in0.0 mm
01:04 AM 46.0°F7.8°C 29.8°F-1.2°C 53% 1.7 mph ENE2.7 kmh ENE 2.4 mph3.9 kmh 29.20 in988.8 mb 0.00 in0.0 mm 0.00 in0.0 mm 0.00 in0.0 mm
01:00 AM 46.0°F7.8°C 30.7°F-0.7°C 55% 1.1 mph ENE1.8 kmh ENE 1.8 mph2.9 kmh 29.20 in988.8 mb 0.00 in0.0 mm 0.00 in0.0 mm 0.00 in0.0 mm
12:54 AM 46.1°F7.8°C 30.8°F-0.7°C 55% 1.2 mph ENE1.9 kmh ENE 1.6 mph2.6 kmh 29.20 in988.8 mb 0.00 in0.0 mm 0.00 in0.0 mm 0.00 in0.0 mm
12:49 AM 46.4°F8.0°C 31.1°F-0.5°C 55% 0.3 mph ENE0.5 kmh ENE 0.6 mph1.0 kmh 29.20 in988.8 mb 0.00 in0.0 mm 0.00 in0.0 mm 0.00 in0.0 mm
12:44 AM 47.0°F8.3°C 31.7°F-0.2°C 55% Calm Calm -- 29.20 in988.8 mb 0.00 in0.0 mm 0.00 in0.0 mm 0.00 in0.0 mm
12:39 AM 47.4°F8.6°C 31.6°F-0.2°C 54% Calm Calm -- 29.20 in988.8 mb 0.00 in0.0 mm 0.00 in0.0 mm 0.00 in0.0 mm
12:34 AM 47.6°F8.7°C 31.3°F-0.4°C 53% Calm Calm -- 29.20 in988.8 mb 0.00 in0.0 mm 0.00 in0.0 mm 0.00 in0.0 mm
12:29 AM 47.3°F8.5°C 31.5°F-0.3°C 54% Calm Calm -- 29.21 in989.2 mb 0.00 in0.0 mm 0.00 in0.0 mm 0.00 in0.0 mm
12:24 AM 47.0°F8.3°C 30.8°F-0.7°C 53% Calm Calm -- 29.21 in989.2 mb 0.00 in0.0 mm 0.00 in0.0 mm 0.00 in0.0 mm
12:19 AM 46.8°F8.2°C 31.0°F-0.6°C 54% Calm Calm -- 29.21 in989.2 mb 0.00 in0.0 mm 0.00 in0.0 mm 0.00 in0.0 mm
12:14 AM 46.7°F8.2°C 30.9°F-0.6°C 54% Calm Calm 0.3 mph0.5 kmh 29.21 in989.2 mb 0.00 in0.0 mm 0.00 in0.0 mm 0.00 in0.0 mm
12:09 AM 46.8°F8.2°C 30.6°F-0.8°C 53% 1.1 mph ENE1.8 kmh ENE 1.5 mph2.4 kmh 29.21 in989.2 mb 0.00 in0.0 mm 0.00 in0.0 mm 0.00 in0.0 mm
12:04 AM 47.1°F8.4°C 30.9°F-0.6°C 53% Calm Calm -- 29.21 in989.2 mb 0.00 in0.0 mm 0.00 in0.0 mm 0.00 in0.0 mm
12:00 AM 47.2°F8.4°C 31.4°F-0.3°C 54% Calm Calm -- 29.21 in989.2 mb 0.00 in0.0 mm 0.00 in0.0 mm 0.00 in0.0 mm